Time;durP1;ratioP1;P1;durP2;ratioP2;P2;SDS_P1;SDS_P2;PMS_P1;PMS_P2;Temp;Humidity;BMP_temperature;BMP_pressure;BME280_temperature;BME280_humidity;BME280_pressure;Samples;Min_cycle;Max_cycle;Signal;HPM_P1;HPM_P2
2022/02/24 00:00:25;;;;;;;14.85;5.03;;;;;;;-141.50;100.00;63355.56;4928345;29;20055;-76
2022/02/24 00:02:52;;;;;;;19.02;4.60;;;;;;;-141.50;100.00;63355.56;4930533;29;20397;-78
2022/02/24 00:05:19;;;;;;;14.90;5.00;;;;;;;-141.50;100.00;63355.56;4931587;29;20052;-75
2022/02/24 00:07:46;;;;;;;19.20;4.93;;;;;;;-141.50;100.00;63355.56;4933456;29;20048;-78
2022/02/24 00:10:14;;;;;;;20.23;4.78;;;;;;;-141.50;100.00;63355.56;4931651;29;20056;-77
2022/02/24 00:12:41;;;;;;;18.65;4.93;;;;;;;-141.50;100.00;63355.56;4931411;29;20060;-76
2022/02/24 00:15:09;;;;;;;20.60;4.88;;;;;;;-141.50;100.00;63355.56;4929176;29;20058;-79
2022/02/24 00:17:36;;;;;;;13.38;4.55;;;;;;;-141.50;100.00;63355.56;4936022;29;20066;-78
2022/02/24 00:20:06;;;;;;;18.10;5.22;;;;;;;-141.50;100.00;63355.56;4933065;29;20162;-76
2022/02/24 00:22:33;;;;;;;14.23;5.03;;;;;;;-141.50;100.00;63355.56;4933664;29;20055;-76
2022/02/24 00:25:01;;;;;;;17.20;4.95;;;;;;;-141.50;100.00;63355.56;4932798;29;20059;-76
2022/02/24 00:27:27;;;;;;;14.65;4.97;;;;;;;-141.50;100.00;63355.56;4934051;29;20047;-77
2022/02/24 00:29:54;;;;;;;17.17;5.13;;;;;;;-141.50;100.00;63355.56;4933110;29;20055;-77
2022/02/24 00:32:21;;;;;;;12.05;4.53;;;;;;;-141.50;100.00;63355.56;4933303;29;20425;-76
2022/02/24 00:34:47;;;;;;;12.52;4.63;;;;;;;-141.50;100.00;63355.56;4934775;29;20083;-77
2022/02/24 00:37:15;;;;;;;16.23;4.63;;;;;;;-141.50;100.00;63355.56;4933492;29;20054;-77
2022/02/24 00:39:45;;;;;;;12.82;4.63;;;;;;;-141.50;100.00;63355.56;4931867;29;20444;-77
2022/02/24 00:42:12;;;;;;;14.20;3.97;;;;;;;-141.50;100.00;63355.56;4933092;29;20147;-76
2022/02/24 00:44:39;;;;;;;16.10;4.88;;;;;;;-141.50;100.00;63355.56;4934045;29;20059;-78
2022/02/24 00:47:06;;;;;;;17.92;4.50;;;;;;;-141.50;100.00;63355.56;4933746;29;20050;-78
2022/02/24 00:49:33;;;;;;;16.23;4.47;;;;;;;-141.50;100.00;63355.56;4934101;29;20484;-75
2022/02/24 00:52:00;;;;;;;17.55;5.10;;;;;;;-141.50;100.00;63355.56;4934102;29;20055;-78
2022/02/24 00:54:27;;;;;;;14.57;5.47;;;;;;;-141.50;100.00;63355.56;4933196;29;20063;-78
2022/02/24 00:56:54;;;;;;;23.73;6.82;;;;;;;-141.50;100.00;63355.56;4936274;29;20055;-79
2022/02/24 00:59:20;;;;;;;24.17;6.93;;;;;;;-141.50;100.00;63355.56;4949161;29;20051;-76
2022/02/24 01:01:48;;;;;;;26.45;6.05;;;;;;;-141.50;100.00;63355.56;4924734;29;20107;-77
2022/02/24 01:04:17;;;;;;;22.60;5.50;;;;;;;-141.50;100.00;63355.56;4916686;29;20052;-77
2022/02/24 01:06:44;;;;;;;17.98;3.95;;;;;;;-141.50;100.00;63355.56;4913700;29;20146;-78
2022/02/24 01:09:11;;;;;;;10.05;3.17;;;;;;;-141.50;100.00;63355.56;4913252;29;20436;-77
2022/02/24 01:11:38;;;;;;;14.43;3.42;;;;;;;-141.50;100.00;63355.56;4913667;29;20072;-78
2022/02/24 01:14:05;;;;;;;21.60;3.72;;;;;;;-141.50;100.00;63355.56;4913238;29;20130;-77
2022/02/24 01:16:32;;;;;;;9.38;2.83;;;;;;;-141.50;100.00;63355.56;4914539;29;20048;-77
2022/02/24 01:18:58;;;;;;;9.15;3.35;;;;;;;-141.50;100.00;63355.56;4913990;29;20135;-78
2022/02/24 01:21:25;;;;;;;8.80;2.92;;;;;;;-141.50;100.00;63355.56;4912497;29;20052;-77
2022/02/24 01:23:52;;;;;;;12.60;3.00;;;;;;;-141.50;100.00;63355.56;4913437;29;20060;-77
2022/02/24 01:26:22;;;;;;;8.13;2.90;;;;;;;-141.50;100.00;63355.56;4918861;29;20048;-77
2022/02/24 01:28:49;;;;;;;15.15;3.30;;;;;;;-141.50;100.00;63355.56;4913172;29;20084;-76
2022/02/24 01:31:16;;;;;;;8.25;2.95;;;;;;;-141.50;100.00;63355.56;4911668;29;20055;-77
2022/02/24 01:33:43;;;;;;;12.15;3.08;;;;;;;-141.50;100.00;63355.56;4913776;29;20512;-76
2022/02/24 01:36:10;;;;;;;14.50;3.08;;;;;;;-141.50;100.00;63355.56;4915602;29;20534;-76
2022/02/24 01:38:38;;;;;;;14.70;3.05;;;;;;;-141.50;100.00;63355.56;4913898;29;20059;-77
2022/02/24 01:41:05;;;;;;;8.57;2.85;;;;;;;-141.50;100.00;63355.56;4911592;29;20433;-78
2022/02/24 01:43:31;;;;;;;14.00;2.88;;;;;;;-141.50;100.00;63355.56;4912687;29;20056;-77
2022/02/24 01:45:58;;;;;;;10.27;3.42;;;;;;;-141.50;100.00;63355.56;4913862;29;20055;-79
2022/02/24 01:48:27;;;;;;;13.45;3.28;;;;;;;-141.50;100.00;63355.56;4915137;29;20428;-78
2022/02/24 01:50:55;;;;;;;11.88;3.05;;;;;;;-141.50;100.00;63355.56;4913108;29;20410;-78
2022/02/24 01:53:22;;;;;;;14.75;2.97;;;;;;;-141.50;100.00;63355.56;4916597;29;20052;-77
2022/02/24 01:55:49;;;;;;;12.63;2.78;;;;;;;-141.50;100.00;63355.56;4915201;29;20444;-76
2022/02/24 01:58:17;;;;;;;9.98;2.08;;;;;;;-141.50;100.00;63355.56;4913509;29;20074;-77
2022/02/24 02:00:45;;;;;;;14.68;2.28;;;;;;;-141.50;100.00;63355.56;4911997;29;20536;-77
2022/02/24 02:03:11;;;;;;;10.88;2.90;;;;;;;-141.50;100.00;63355.56;4911177;29;20118;-76
2022/02/24 02:05:38;;;;;;;11.93;2.67;;;;;;;-141.50;100.00;63355.56;4914651;29;20154;-78
2022/02/24 02:08:05;;;;;;;10.10;3.10;;;;;;;-141.50;100.00;63355.56;4912018;29;20757;-78
2022/02/24 02:10:33;;;;;;;12.10;3.22;;;;;;;-141.50;100.00;63355.56;4912997;29;20131;-76
2022/02/24 02:13:00;;;;;;;11.88;3.58;;;;;;;-141.50;100.00;63355.56;4912858;29;20172;-78
2022/02/24 02:15:26;;;;;;;11.23;3.65;;;;;;;-141.50;100.00;63355.56;4910572;29;20066;-78
2022/02/24 02:17:53;;;;;;;14.40;3.63;;;;;;;-141.50;100.00;63355.56;4912479;29;20520;-79
2022/02/24 02:20:20;;;;;;;13.63;3.35;;;;;;;-141.50;100.00;63355.56;4911696;29;20531;-77
2022/02/24 02:22:52;;;;;;;19.02;4.28;;;;;;;-141.50;100.00;63355.56;4911871;29;20055;-77
2022/02/24 02:25:20;;;;;;;15.10;3.50;;;;;;;-141.50;100.00;63355.56;4909804;29;20060;-75
2022/02/24 02:27:49;;;;;;;17.13;4.13;;;;;;;-141.50;100.00;63355.56;4911798;29;20048;-77
2022/02/24 02:30:17;;;;;;;10.65;3.20;;;;;;;-141.50;100.00;63355.56;4909032;29;20388;-77
2022/02/24 02:32:44;;;;;;;20.42;3.60;;;;;;;-141.50;100.00;63355.56;4913557;29;20469;-77
2022/02/24 02:35:11;;;;;;;13.43;3.65;;;;;;;-141.50;100.00;63355.56;4915094;29;20429;-77
2022/02/24 02:37:40;;;;;;;13.88;3.20;;;;;;;-141.50;100.00;63355.56;4912024;29;20146;-76
2022/02/24 02:40:10;;;;;;;13.38;3.17;;;;;;;-141.50;100.00;63355.56;4911297;29;20501;-78
2022/02/24 02:42:37;;;;;;;9.40;3.25;;;;;;;-141.50;100.00;63355.56;4912031;29;20052;-76
2022/02/24 02:45:05;;;;;;;10.45;3.20;;;;;;;-141.50;100.00;63355.56;4909089;29;20284;-77
2022/02/24 02:47:32;;;;;;;13.15;3.15;;;;;;;-141.50;100.00;63355.56;4912121;29;20532;-78
2022/02/24 02:49:58;;;;;;;21.05;6.03;;;;;;;-141.50;100.00;63355.56;4898102;29;20315;-78
2022/02/24 02:52:25;;;;;;;20.52;4.18;;;;;;;-141.50;100.00;63355.56;4913778;29;20056;-77
2022/02/24 02:54:59;;;;;;;34.42;7.78;;;;;;;-141.50;100.00;63355.56;4912320;29;20088;-77
2022/02/24 02:57:26;;;;;;;21.25;6.20;;;;;;;-141.50;100.00;63355.56;4911463;29;20047;-77
2022/02/24 02:59:52;;;;;;;17.17;4.28;;;;;;;-141.50;100.00;63355.56;4911814;29;20058;-77
2022/02/24 03:02:19;;;;;;;17.15;3.60;;;;;;;-141.50;100.00;63355.56;4911852;29;20056;-76
2022/02/24 03:04:50;;;;;;;12.43;3.15;;;;;;;-141.50;100.00;63355.56;4911309;29;20583;-76
2022/02/24 03:07:18;;;;;;;17.88;3.80;;;;;;;-141.50;100.00;63355.56;4914421;29;20052;-76
2022/02/24 03:09:48;;;;;;;11.18;2.95;;;;;;;-141.50;100.00;63355.56;4916104;29;20590;-78
2022/02/24 03:12:14;;;;;;;12.82;2.97;;;;;;;-141.50;100.00;63355.56;4897036;29;20051;-77
2022/02/24 03:14:45;;;;;;;14.90;3.20;;;;;;;-141.50;100.00;63355.56;4912933;29;20044;-78
2022/02/24 03:17:14;;;;;;;12.20;2.88;;;;;;;-141.50;100.00;63355.56;4915549;29;20063;-79
2022/02/24 03:19:40;;;;;;;10.75;3.15;;;;;;;-141.50;100.00;63355.56;4916544;29;20069;-78
2022/02/24 03:22:12;;;;;;;12.93;4.00;;;;;;;-141.50;100.00;63355.56;4917073;29;20147;-78
2022/02/24 03:24:39;;;;;;;14.85;3.13;;;;;;;-141.50;100.00;63355.56;4916389;29;20100;-77
2022/02/24 03:27:06;;;;;;;13.95;3.10;;;;;;;-141.50;100.00;63355.56;4911770;29;20121;-78
2022/02/24 03:29:33;;;;;;;12.48;3.28;;;;;;;-141.50;100.00;63355.56;4913975;29;20059;-78
2022/02/24 03:32:00;;;;;;;9.73;3.30;;;;;;;-141.50;100.00;63355.56;4913464;29;20048;-76
2022/02/24 03:34:28;;;;;;;13.05;3.53;;;;;;;-141.50;100.00;63355.56;4911902;29;20060;-76
2022/02/24 03:36:54;;;;;;;15.32;3.60;;;;;;;-141.50;100.00;63355.56;4912170;29;20075;-79
2022/02/24 03:39:21;;;;;;;14.30;3.65;;;;;;;-141.50;100.00;63355.56;4910311;29;20041;-76
2022/02/24 03:41:48;;;;;;;17.95;3.55;;;;;;;-141.50;100.00;63355.56;4908754;29;20056;-78
2022/02/24 03:44:14;;;;;;;14.10;3.80;;;;;;;-141.50;100.00;63355.56;4911309;29;20078;-77
2022/02/24 03:46:41;;;;;;;14.20;3.00;;;;;;;-141.50;100.00;63355.56;4910414;29;20063;-77
2022/02/24 03:49:08;;;;;;;16.20;3.45;;;;;;;-141.50;100.00;63355.56;4912490;29;20461;-77
2022/02/24 03:51:35;;;;;;;14.32;3.33;;;;;;;-141.50;100.00;63355.56;4910335;29;20064;-77
2022/02/24 03:54:02;;;;;;;19.08;3.60;;;;;;;-141.50;100.00;63355.56;4910477;29;20516;-76
2022/02/24 03:56:28;;;;;;;11.43;3.42;;;;;;;-141.50;100.00;63355.56;4911222;29;20128;-77
2022/02/24 03:58:55;;;;;;;11.02;3.45;;;;;;;-141.50;100.00;63355.56;4914271;29;20511;-77
2022/02/24 04:01:21;;;;;;;12.68;3.40;;;;;;;-141.50;100.00;63355.56;4913684;29;20485;-77
2022/02/24 04:03:48;;;;;;;13.93;3.47;;;;;;;-141.50;100.00;63355.56;4915839;29;20056;-78
2022/02/24 04:06:15;;;;;;;15.95;3.22;;;;;;;-141.50;100.00;63355.56;4917869;29;20167;-75
2022/02/24 04:08:42;;;;;;;15.65;4.20;;;;;;;-141.50;100.00;63355.56;4916292;29;20052;-79
2022/02/24 04:11:09;;;;;;;10.23;2.67;;;;;;;-141.50;100.00;63355.56;4917819;29;20056;-78
2022/02/24 04:13:35;;;;;;;11.45;2.22;;;;;;;-141.50;100.00;63355.56;4916916;29;20072;-77
2022/02/24 04:16:05;;;;;;;15.80;3.05;;;;;;;-141.50;100.00;63355.56;4922000;29;20052;-77
2022/02/24 04:18:32;;;;;;;14.63;2.50;;;;;;;-141.50;100.00;63355.56;4927178;29;20063;-76
2022/02/24 04:20:59;;;;;;;10.73;2.42;;;;;;;-141.50;100.00;63355.56;4924132;29;20519;-77
2022/02/24 04:23:25;;;;;;;8.32;2.45;;;;;;;-141.50;100.00;63355.56;4916006;29;20052;-79
2022/02/24 04:25:52;;;;;;;16.38;2.47;;;;;;;-141.50;100.00;63355.56;4917601;29;20068;-78
2022/02/24 04:28:22;;;;;;;8.63;2.05;;;;;;;-141.50;100.00;63355.56;4916969;29;20079;-79
2022/02/24 04:30:49;;;;;;;12.98;2.28;;;;;;;-141.50;100.00;63355.56;4913340;29;20147;-78
2022/02/24 04:33:16;;;;;;;8.82;1.92;;;;;;;-141.50;100.00;63355.56;4914897;29;20565;-77
2022/02/24 04:35:43;;;;;;;15.27;2.30;;;;;;;-141.50;100.00;63355.56;4915328;29;20059;-77
2022/02/24 04:38:11;;;;;;;11.70;2.28;;;;;;;-141.50;100.00;63355.56;4914422;29;20126;-78
2022/02/24 04:40:38;;;;;;;10.95;2.92;;;;;;;-141.50;100.00;63355.56;4913817;29;20064;-78
2022/02/24 04:43:04;;;;;;;8.82;1.88;;;;;;;-141.50;100.00;63355.56;4915689;29;20075;-77
2022/02/24 04:45:31;;;;;;;9.65;1.85;;;;;;;-141.50;100.00;63355.56;4913474;29;20067;-77
2022/02/24 04:47:57;;;;;;;7.68;1.95;;;;;;;-141.50;100.00;63355.56;4915205;29;20063;-78
2022/02/24 04:50:24;;;;;;;10.82;2.00;;;;;;;-141.50;100.00;63355.56;4915391;29;20123;-77
2022/02/24 04:52:51;;;;;;;9.07;1.50;;;;;;;-141.50;100.00;63355.56;4916294;29;20432;-78
2022/02/24 04:55:17;;;;;;;10.85;2.28;;;;;;;-141.50;100.00;63355.56;4915327;29;20055;-79
2022/02/24 04:57:44;;;;;;;9.65;2.08;;;;;;;-141.50;100.00;63355.56;4917692;29;20470;-77
2022/02/24 05:00:12;;;;;;;8.20;1.50;;;;;;;-141.50;100.00;63355.56;4917473;29;20070;-77
2022/02/24 05:02:38;;;;;;;7.13;1.65;;;;;;;-141.50;100.00;63355.56;4915980;29;20149;-78
2022/02/24 05:05:05;;;;;;;9.70;1.90;;;;;;;-141.50;100.00;63355.56;4920746;29;20076;-77
2022/02/24 05:07:32;;;;;;;7.32;1.88;;;;;;;-141.50;100.00;63355.56;4918247;29;20100;-77
2022/02/24 05:10:01;;;;;;;7.85;1.77;;;;;;;-141.50;100.00;63355.56;4915155;29;20052;-77
2022/02/24 05:12:27;;;;;;;11.45;2.00;;;;;;;-141.50;100.00;63355.56;4916845;29;20060;-81
2022/02/24 05:14:55;;;;;;;13.38;1.98;;;;;;;-141.50;100.00;63355.56;4913922;29;20056;-78
2022/02/24 05:17:22;;;;;;;11.90;1.83;;;;;;;-141.50;100.00;63355.56;4915063;29;20143;-78
2022/02/24 05:19:50;;;;;;;4.43;1.67;;;;;;;-141.50;100.00;63355.56;4915420;29;20493;-77
2022/02/24 05:22:16;;;;;;;11.65;1.73;;;;;;;-141.50;100.00;63355.56;4914977;29;20048;-77
2022/02/24 05:24:43;;;;;;;13.65;1.70;;;;;;;-141.50;100.00;63355.56;4898244;29;20642;-76
2022/02/24 05:27:11;;;;;;;8.43;1.67;;;;;;;-141.50;100.00;63355.56;4913967;29;20048;-77
2022/02/24 05:29:37;;;;;;;9.82;2.00;;;;;;;-141.50;100.00;63355.56;4913998;29;20052;-79
2022/02/24 05:32:05;;;;;;;13.82;1.52;;;;;;;-141.50;100.00;63355.56;4912976;29;20055;-77
2022/02/24 05:34:32;;;;;;;11.75;1.50;;;;;;;-141.50;100.00;63355.56;4913951;29;20425;-77
2022/02/24 05:36:59;;;;;;;7.15;1.58;;;;;;;-141.50;100.00;63355.56;4913880;29;20053;-77
2022/02/24 05:39:26;;;;;;;6.05;1.30;;;;;;;-141.50;100.00;63355.56;4913363;29;20052;-76
2022/02/24 05:41:53;;;;;;;9.15;1.50;;;;;;;-141.50;100.00;63355.56;4912097;29;20059;-77
2022/02/24 05:44:19;;;;;;;10.38;1.83;;;;;;;-141.50;100.00;63355.56;4912582;29;20502;-76
2022/02/24 05:46:46;;;;;;;7.38;1.50;;;;;;;-141.50;100.00;63355.56;4914173;29;20056;-77
2022/02/24 05:49:15;;;;;;;7.60;1.30;;;;;;;-141.50;100.00;63355.56;4912997;29;20052;-77
2022/02/24 05:51:44;;;;;;;11.10;1.60;;;;;;;-141.50;100.00;63355.56;4913960;29;20469;-78
2022/02/24 05:54:11;;;;;;;5.90;1.42;;;;;;;-141.50;100.00;63355.56;4912607;29;20060;-78
2022/02/24 05:56:38;;;;;;;8.55;1.50;;;;;;;-141.50;100.00;63355.56;4913593;29;20063;-76
2022/02/24 05:59:05;;;;;;;9.73;1.40;;;;;;;-141.50;100.00;63355.56;4913436;29;20048;-77
2022/02/24 06:01:32;;;;;;;7.43;1.30;;;;;;;-141.50;100.00;63355.56;4913686;29;20052;-77
2022/02/24 06:03:59;;;;;;;8.85;1.30;;;;;;;-141.50;100.00;63355.56;4914490;29;20060;-78
2022/02/24 06:06:26;;;;;;;5.57;1.33;;;;;;;-141.50;100.00;63355.56;4916880;29;20052;-79
2022/02/24 06:08:52;;;;;;;5.70;1.25;;;;;;;-141.50;100.00;63355.56;4914498;29;20052;-77
2022/02/24 06:11:19;;;;;;;10.00;1.55;;;;;;;-141.50;100.00;63355.56;4913634;29;20473;-78
2022/02/24 06:13:46;;;;;;;7.82;1.17;;;;;;;-141.50;100.00;63355.56;4914374;29;20084;-75
2022/02/24 06:16:12;;;;;;;7.57;1.20;;;;;;;-141.50;100.00;63355.56;4914794;29;20052;-79
2022/02/24 06:18:41;;;;;;;9.30;1.70;;;;;;;-141.50;100.00;63355.56;4916813;29;20409;-78
2022/02/24 06:21:07;;;;;;;6.75;1.40;;;;;;;-141.50;100.00;63355.56;4915418;29;20228;-76
2022/02/24 06:23:34;;;;;;;5.78;1.20;;;;;;;-141.50;100.00;63355.56;4914431;29;20056;-78
2022/02/24 06:26:00;;;;;;;5.18;1.35;;;;;;;-141.50;100.00;63355.56;4912811;29;20108;-78
2022/02/24 06:28:29;;;;;;;3.42;1.10;;;;;;;-141.50;100.00;63355.56;4913505;29;20221;-77
2022/02/24 06:30:56;;;;;;;3.53;1.10;;;;;;;-141.50;100.00;63355.56;4913722;29;20052;-77
2022/02/24 06:33:23;;;;;;;7.25;1.10;;;;;;;-141.50;100.00;63355.56;4913700;29;20232;-77
2022/02/24 06:35:50;;;;;;;7.45;1.27;;;;;;;-141.50;100.00;63355.56;4913695;29;20096;-78
2022/02/24 06:38:19;;;;;;;8.60;1.48;;;;;;;-141.50;100.00;63355.56;4913025;29;20143;-78
2022/02/24 06:40:46;;;;;;;9.50;1.70;;;;;;;-141.50;100.00;63355.56;4913556;29;20060;-78
2022/02/24 06:43:13;;;;;;;5.20;1.20;;;;;;;-141.50;100.00;63355.56;4911305;29;20059;-78
2022/02/24 06:45:40;;;;;;;9.60;1.45;;;;;;;-141.50;100.00;63355.56;4910558;29;20044;-78
2022/02/24 06:48:07;;;;;;;9.45;1.23;;;;;;;-141.50;100.00;63355.56;4913898;29;20418;-78
2022/02/24 06:50:33;;;;;;;4.35;1.35;;;;;;;-141.50;100.00;63355.56;4911564;29;20048;-78
2022/02/24 06:53:00;;;;;;;4.25;1.10;;;;;;;-141.50;100.00;63355.56;4913011;29;20519;-78
2022/02/24 06:55:27;;;;;;;8.77;1.60;;;;;;;-141.50;100.00;63355.56;4912398;29;20115;-78
2022/02/24 06:57:53;;;;;;;6.60;1.42;;;;;;;-141.50;100.00;63355.56;4912537;29;20496;-78
2022/02/24 07:00:22;;;;;;;6.25;1.42;;;;;;;-141.50;100.00;63355.56;4910664;29;20083;-78
2022/02/24 07:02:49;;;;;;;6.60;1.50;;;;;;;-141.50;100.00;63355.56;4914109;29;20534;-77
2022/02/24 07:05:16;;;;;;;5.43;1.63;;;;;;;-141.50;100.00;63355.56;4913440;29;20056;-78
2022/02/24 07:07:43;;;;;;;6.38;1.20;;;;;;;-141.50;100.00;63355.56;4914149;29;20151;-77
2022/02/24 07:10:13;;;;;;;6.38;1.48;;;;;;;-141.50;100.00;63355.56;4913760;29;20079;-78
2022/02/24 07:12:41;;;;;;;7.35;1.48;;;;;;;-141.50;100.00;63355.56;4897491;29;20056;-79
2022/02/24 07:15:10;;;;;;;6.93;1.70;;;;;;;-141.50;100.00;63355.56;4912121;29;20067;-79
2022/02/24 07:17:46;;;;;;;6.25;1.58;;;;;;;-141.50;100.00;63355.56;4914646;29;20115;-76
2022/02/24 07:20:15;;;;;;;4.53;1.27;;;;;;;-141.50;100.00;63355.56;4913983;29;20056;-78
2022/02/24 07:22:42;;;;;;;6.03;1.35;;;;;;;-141.50;100.00;63355.56;4914541;29;20078;-77
2022/02/24 07:25:12;;;;;;;10.82;1.40;;;;;;;-141.50;100.00;63355.56;4914429;29;20063;-78
2022/02/24 07:27:39;;;;;;;4.55;1.10;;;;;;;-141.50;100.00;63355.56;4913882;29;20044;-77
2022/02/24 07:30:10;;;;;;;8.77;1.42;;;;;;;-141.50;100.00;63355.56;4910530;29;20091;-77
2022/02/24 07:32:36;;;;;;;4.43;1.20;;;;;;;-141.50;100.00;63355.56;4918774;29;20120;-79
2022/02/24 07:35:04;;;;;;;4.78;1.02;;;;;;;-141.50;100.00;63355.56;4928869;29;20056;-79
2022/02/24 07:37:31;;;;;;;2.88;1.45;;;;;;;-141.50;100.00;63355.56;4923988;29;20147;-78
2022/02/24 07:39:58;;;;;;;7.05;1.38;;;;;;;-141.50;100.00;63355.56;4912572;29;20048;-77
2022/02/24 07:42:24;;;;;;;5.65;1.30;;;;;;;-141.50;100.00;63355.56;4911479;29;20059;-77
2022/02/24 07:44:51;;;;;;;4.53;1.60;;;;;;;-141.50;100.00;63355.56;4910215;29;20052;-78
2022/02/24 07:47:18;;;;;;;4.57;1.38;;;;;;;-141.50;100.00;63355.56;4912917;29;20059;-77
2022/02/24 07:49:45;;;;;;;6.30;2.10;;;;;;;-141.50;100.00;63355.56;4911698;29;20041;-78
2022/02/24 07:52:14;;;;;;;7.22;1.60;;;;;;;-141.50;100.00;63355.56;4914843;29;20502;-78
2022/02/24 07:54:40;;;;;;;7.70;1.52;;;;;;;-141.50;100.00;63355.56;4915047;29;20271;-79
2022/02/24 07:57:07;;;;;;;9.32;2.10;;;;;;;-141.50;100.00;63355.56;4913309;29;20044;-77
2022/02/24 07:59:34;;;;;;;10.35;1.48;;;;;;;-141.50;100.00;63355.56;4910233;29;20509;-77
2022/02/24 08:02:02;;;;;;;7.80;1.77;;;;;;;-141.50;100.00;63355.56;4910493;29;20052;-77
2022/02/24 08:04:32;;;;;;;7.63;2.17;;;;;;;-141.50;100.00;63355.56;4912523;29;20048;-78
2022/02/24 08:06:59;;;;;;;5.53;1.60;;;;;;;-141.50;100.00;63355.56;4912335;29;20144;-78
2022/02/24 08:09:26;;;;;;;5.47;1.80;;;;;;;-141.50;100.00;63355.56;4914154;29;20461;-79
2022/02/24 08:14:38;;;;;;;6.60;1.17;;;;;;;-141.50;100.00;63355.56;4912599;29;20048;-78
2022/02/24 08:17:05;;;;;;;9.90;1.80;;;;;;;-141.50;100.00;63355.56;4912740;29;20059;-79
2022/02/24 08:19:32;;;;;;;5.03;1.65;;;;;;;-141.50;100.00;63355.56;4914634;29;20051;-77
2022/02/24 08:21:59;;;;;;;5.82;1.80;;;;;;;-141.50;100.00;63355.56;4916564;29;20362;-79
2022/02/24 08:24:26;;;;;;;12.68;2.28;;;;;;;-141.50;100.00;63355.56;4916658;29;20485;-77
2022/02/24 08:26:53;;;;;;;5.32;1.33;;;;;;;-141.50;100.00;63355.56;4912226;29;20048;-77
2022/02/24 08:29:19;;;;;;;5.82;1.95;;;;;;;-141.50;100.00;63355.56;4912977;29;20048;-79
2022/02/24 08:31:46;;;;;;;5.22;1.58;;;;;;;-141.50;100.00;63355.56;4911273;29;20141;-77
2022/02/24 08:34:13;;;;;;;6.65;1.23;;;;;;;-141.50;100.00;63355.56;4917541;29;20055;-79
2022/02/24 08:36:40;;;;;;;6.68;1.90;;;;;;;-141.50;100.00;63355.56;4920923;29;20048;-79
2022/02/24 08:39:06;;;;;;;5.78;1.52;;;;;;;-141.50;100.00;63355.56;4913808;29;20063;-78
2022/02/24 08:41:41;;;;;;;6.15;1.52;;;;;;;-141.50;100.00;63355.56;4911739;29;20148;-77
2022/02/24 08:44:08;;;;;;;9.68;1.80;;;;;;;-141.50;100.00;63355.56;4914210;29;20059;-78
2022/02/24 08:46:42;;;;;;;5.90;1.60;;;;;;;-141.50;100.00;63355.56;4913124;29;20511;-76
2022/02/24 08:49:09;;;;;;;8.00;1.67;;;;;;;-141.50;100.00;63355.56;4898617;29;20048;-78
2022/02/24 08:51:35;;;;;;;6.30;1.80;;;;;;;-141.50;100.00;63355.56;4913112;29;20049;-77
2022/02/24 08:54:02;;;;;;;7.65;1.58;;;;;;;-141.50;100.00;63355.56;4914984;29;20091;-76
2022/02/24 08:56:30;;;;;;;8.30;1.52;;;;;;;-141.50;100.00;63355.56;4913574;29;20063;-77
2022/02/24 08:58:56;;;;;;;6.05;1.58;;;;;;;-141.50;100.00;63355.56;4914905;29;20040;-76
2022/02/24 09:01:23;;;;;;;6.85;1.33;;;;;;;-141.50;100.00;63355.56;4913080;29;20052;-77
2022/02/24 09:03:50;;;;;;;7.68;1.90;;;;;;;-141.50;100.00;63355.56;4913914;29;20143;-79
2022/02/24 09:06:17;;;;;;;5.25;1.70;;;;;;;-141.50;100.00;63355.56;4916032;29;20098;-78
2022/02/24 09:08:44;;;;;;;6.25;2.00;;;;;;;-141.50;100.00;63355.56;4914789;29;20078;-78
2022/02/24 09:11:11;;;;;;;6.80;1.83;;;;;;;-141.50;100.00;63355.56;4914226;29;20056;-78
2022/02/24 09:13:41;;;;;;;4.95;1.50;;;;;;;-141.50;100.00;63355.56;4914920;29;20052;-80
2022/02/24 09:16:08;;;;;;;9.05;1.27;;;;;;;-141.50;100.00;63355.56;4912712;29;20137;-77
2022/02/24 09:18:36;;;;;;;4.95;1.52;;;;;;;-141.50;100.00;63355.56;4915635;29;20056;-78
2022/02/24 09:21:03;;;;;;;9.57;2.45;;;;;;;-141.50;100.00;63355.56;4914075;29;20044;-79
2022/02/24 09:23:30;;;;;;;6.45;2.20;;;;;;;-141.50;100.00;63355.56;4914172;29;20087;-77
2022/02/24 09:25:57;;;;;;;5.15;1.60;;;;;;;-141.50;100.00;63355.56;4915089;29;20139;-77
2022/02/24 09:28:23;;;;;;;5.50;1.30;;;;;;;-141.50;100.00;63355.56;4915527;29;20058;-78
2022/02/24 09:30:50;;;;;;;4.50;1.52;;;;;;;-141.50;100.00;63355.56;4920689;29;20059;-78
2022/02/24 09:33:18;;;;;;;5.40;1.80;;;;;;;-141.50;100.00;63355.56;4935576;29;20392;-78
2022/02/24 09:35:44;;;;;;;7.90;2.00;;;;;;;-141.50;100.00;63355.56;4934757;29;20080;-77
2022/02/24 09:38:11;;;;;;;6.00;1.98;;;;;;;-141.50;100.00;63355.56;4936116;29;20048;-78
2022/02/24 09:40:41;;;;;;;6.28;1.30;;;;;;;-141.50;100.00;63355.56;4934986;29;20059;-78
2022/02/24 09:43:20;;;;;;;9.02;1.55;;;;;;;-141.50;100.00;63355.56;4933901;29;20115;-79
2022/02/24 09:45:50;;;;;;;8.80;2.15;;;;;;;-141.50;100.00;63355.56;4933914;29;20063;-78
2022/02/24 09:48:19;;;;;;;6.93;1.70;;;;;;;-141.50;100.00;63355.56;4934795;29;20059;-78
2022/02/24 09:50:52;;;;;;;7.57;1.77;;;;;;;-141.50;100.00;63355.56;4932916;29;20063;-77
2022/02/24 09:53:20;;;;;;;6.63;2.00;;;;;;;-141.50;100.00;63355.56;4931618;29;20048;-77
2022/02/24 09:55:47;;;;;;;8.13;2.13;;;;;;;-141.50;100.00;63355.56;4931761;29;20527;-77
2022/02/24 09:58:14;;;;;;;6.35;1.70;;;;;;;-141.50;100.00;63355.56;4932630;29;20043;-79
2022/02/24 10:00:40;;;;;;;6.47;2.00;;;;;;;-141.50;100.00;63355.56;4931999;29;20059;-78
2022/02/24 10:03:33;;;;;;;7.28;2.00;;;;;;;-141.50;100.00;63355.56;4938327;29;20060;-79
2022/02/24 10:06:01;;;;;;;6.93;1.40;;;;;;;-141.50;100.00;63355.56;4935430;29;20055;-79
2022/02/24 10:08:34;;;;;;;6.78;1.63;;;;;;;-141.50;100.00;63355.56;4935074;29;20052;-78
2022/02/24 10:11:05;;;;;;;4.65;1.35;;;;;;;-141.50;100.00;63355.56;4930244;29;20062;-78
2022/02/24 10:13:31;;;;;;;6.55;1.63;;;;;;;-141.50;100.00;63355.56;4932682;29;20513;-78
2022/02/24 10:16:02;;;;;;;5.95;1.60;;;;;;;-141.50;100.00;63355.56;4935497;29;20047;-79
2022/02/24 10:18:31;;;;;;;5.10;1.63;;;;;;;-141.50;100.00;63355.56;4932371;29;20499;-77
2022/02/24 10:21:00;;;;;;;5.63;1.65;;;;;;;-141.50;100.00;63355.56;4931870;29;20123;-78
2022/02/24 10:23:36;;;;;;;9.88;1.90;;;;;;;-141.50;100.00;63355.56;4936570;29;20040;-78
2022/02/24 10:26:06;;;;;;;5.60;1.73;;;;;;;-141.50;100.00;63355.56;4934002;29;20456;-77
2022/02/24 10:28:32;;;;;;;7.63;1.80;;;;;;;-141.50;100.00;63355.56;4935169;29;20404;-79
2022/02/24 10:31:10;;;;;;;6.00;1.75;;;;;;;-141.50;100.00;63355.56;4934444;29;20052;-79
2022/02/24 10:33:40;;;;;;;5.82;1.85;;;;;;;-141.50;100.00;63355.56;4937024;29;20170;-78
2022/02/24 10:36:14;;;;;;;7.65;1.80;;;;;;;-141.50;100.00;63355.56;4937803;29;20058;-78
2022/02/24 10:39:03;;;;;;;7.50;1.70;;;;;;;-141.50;100.00;63355.56;4939022;29;20147;-79
2022/02/24 10:41:39;;;;;;;5.45;1.70;;;;;;;-141.50;100.00;63355.56;4933681;29;20304;-78
2022/02/24 10:44:12;;;;;;;7.13;1.42;;;;;;;-141.50;100.00;63355.56;4932135;29;20048;-78
2022/02/24 10:46:39;;;;;;;5.72;1.70;;;;;;;-141.50;100.00;63355.56;4934076;29;20059;-77
2022/02/24 10:49:06;;;;;;;8.63;1.77;;;;;;;-141.50;100.00;63355.56;4948992;29;20043;-78
2022/02/24 10:51:34;;;;;;;7.43;1.85;;;;;;;-141.50;100.00;63355.56;4946130;29;20051;-78
2022/02/24 10:54:05;;;;;;;3.83;1.35;;;;;;;-141.50;100.00;63355.56;4931701;29;20059;-79
2022/02/24 10:56:44;;;;;;;5.13;1.40;;;;;;;-141.50;100.00;63355.56;4932794;29;20496;-79
2022/02/24 10:59:16;;;;;;;5.60;1.60;;;;;;;-141.50;100.00;63355.56;4936648;29;20054;-78
2022/02/24 11:01:43;;;;;;;5.50;1.40;;;;;;;-141.50;100.00;63355.56;4931224;29;20094;-79
2022/02/24 11:04:10;;;;;;;5.07;1.40;;;;;;;-141.50;100.00;63355.56;4933857;29;20048;-77
2022/02/24 11:06:37;;;;;;;8.43;1.40;;;;;;;-141.50;100.00;63355.56;4933359;29;20150;-79
2022/02/24 11:09:07;;;;;;;5.20;1.40;;;;;;;-141.50;100.00;63355.56;4931483;29;20078;-77
2022/02/24 11:11:36;;;;;;;9.50;1.50;;;;;;;-141.50;100.00;63355.56;4930404;29;20094;-77